BAW4648 KLAX-KSAN
Flight info
| Callsign | BAW4648 |
|---|---|
| Flight time | N/A |
| Altitude | 7500 |
| Route | STRAIGHT OUT DEPARTURE |
| Aircraft | A388/J-S/L |
Departure
| Time | 2026-04-26 00:26 |
|---|---|
| Airport | Los Angeles International Airport (KLAX) |
Arrival
| Time | N/A |
|---|---|
| Airport | San Diego International Airport (KSAN) |
| Time | Latitude | Longitude | Altitude | Speed | Heading |
|---|---|---|---|---|---|
| 2026-04-25 23:58 | 33.94089 | -118.40938 | 132 ft | 0 kts | 264° |
| 2026-04-26 00:02 | 33.94090 | -118.40925 | 134 ft | 2 kts | 264° |
| 2026-04-26 00:02 | 33.94092 | -118.40904 | 136 ft | 2 kts | 264° |
| 2026-04-26 00:02 | 33.94089 | -118.40881 | 128 ft | 3 kts | 247° |
| 2026-04-26 00:02 | 33.94094 | -118.40852 | 130 ft | 3 kts | 207° |
| 2026-04-26 00:03 | 33.94107 | -118.40836 | 127 ft | 1 kts | 176° |
| 2026-04-26 00:03 | 33.94109 | -118.40835 | 128 ft | 0 kts | 172° |
| 2026-04-26 00:16 | 33.94108 | -118.40835 | 132 ft | 0 kts | 173° |
| 2026-04-26 00:16 | 33.94093 | -118.40833 | 125 ft | 4 kts | 173° |
| 2026-04-26 00:16 | 33.94049 | -118.40826 | 129 ft | 8 kts | 173° |
| 2026-04-26 00:17 | 33.93976 | -118.40815 | 130 ft | 13 kts | 173° |
| 2026-04-26 00:17 | 33.93892 | -118.40833 | 129 ft | 11 kts | 206° |
| 2026-04-26 00:17 | 33.93868 | -118.40894 | 124 ft | 3 kts | 261° |
| 2026-04-26 00:17 | 33.93865 | -118.40932 | 124 ft | 7 kts | 263° |
| 2026-04-26 00:18 | 33.93858 | -118.41004 | 132 ft | 11 kts | 263° |
| 2026-04-26 00:18 | 33.93851 | -118.41103 | 132 ft | 12 kts | 269° |
| 2026-04-26 00:18 | 33.93887 | -118.41160 | 127 ft | 6 kts | 319° |
| 2026-04-26 00:18 | 33.93923 | -118.41173 | 128 ft | 5 kts | 342° |
| 2026-04-26 00:19 | 33.93959 | -118.41176 | 128 ft | 7 kts | 353° |
| 2026-04-26 00:19 | 33.94021 | -118.41185 | 129 ft | 11 kts | 353° |
| 2026-04-26 00:19 | 33.94111 | -118.41198 | 132 ft | 15 kts | 354° |
| 2026-04-26 00:19 | 33.94224 | -118.41215 | 127 ft | 18 kts | 353° |
| 2026-04-26 00:20 | 33.94361 | -118.41238 | 130 ft | 22 kts | 352° |
| 2026-04-26 00:20 | 33.94518 | -118.41259 | 129 ft | 24 kts | 352° |
| 2026-04-26 00:20 | 33.94631 | -118.41276 | 130 ft | 26 kts | 353° |
| 2026-04-26 00:20 | 33.94785 | -118.41256 | 125 ft | 14 kts | 44° |
| 2026-04-26 00:21 | 33.94808 | -118.41153 | 132 ft | 13 kts | 83° |
| 2026-04-26 00:21 | 33.94821 | -118.41029 | 132 ft | 17 kts | 83° |
| 2026-04-26 00:21 | 33.94838 | -118.40870 | 132 ft | 21 kts | 83° |
| 2026-04-26 00:21 | 33.94857 | -118.40679 | 132 ft | 25 kts | 83° |
| 2026-04-26 00:22 | 33.94878 | -118.40461 | 124 ft | 28 kts | 83° |
| 2026-04-26 00:22 | 33.94903 | -118.40225 | 124 ft | 29 kts | 84° |
| 2026-04-26 00:22 | 33.94922 | -118.40041 | 132 ft | 18 kts | 83° |
| 2026-04-26 00:22 | 33.94946 | -118.39939 | 127 ft | 7 kts | 60° |
| 2026-04-26 00:23 | 33.94954 | -118.39933 | 132 ft | 0 kts | 50° |
| 2026-04-26 00:23 | 33.94957 | -118.39930 | 126 ft | 2 kts | 47° |
| 2026-04-26 00:23 | 33.94976 | -118.39916 | 126 ft | 4 kts | 36° |
| 2026-04-26 00:23 | 33.95005 | -118.39913 | 129 ft | 4 kts | 6° |
| 2026-04-26 00:24 | 33.95037 | -118.39921 | 129 ft | 5 kts | 351° |
| 2026-04-26 00:24 | 33.95044 | -118.39942 | 123 ft | 1 kts | 315° |
| 2026-04-26 00:24 | 33.95044 | -118.39964 | 122 ft | 2 kts | 286° |
| 2026-04-26 00:24 | 33.95038 | -118.39990 | 125 ft | 0 kts | 263° |
| 2026-04-26 00:25 | 33.95038 | -118.39991 | 125 ft | 0 kts | 263° |
| 2026-04-26 00:25 | 33.95038 | -118.39995 | 126 ft | 9 kts | 263° |
| 2026-04-26 00:25 | 33.94990 | -118.40461 | 124 ft | 101 kts | 263° |
| 2026-04-26 00:25 | 33.94869 | -118.41635 | 133 ft | 177 kts | 263° |
| 2026-04-26 00:26 | 33.94704 | -118.43264 | 752 ft | 212 kts | 262° |
| 2026-04-26 00:26 | 33.94475 | -118.45188 | 1542 ft | 254 kts | 262° |
| 2026-04-26 00:26 | 33.94146 | -118.47406 | 2647 ft | 278 kts | 257° |
| 2026-04-26 00:26 | 33.93768 | -118.49702 | 4066 ft | 297 kts | 261° |
| 2026-04-26 00:27 | 33.93451 | -118.52360 | 4531 ft | 345 kts | 262° |
| 2026-04-26 00:27 | 33.93114 | -118.55430 | 4781 ft | 393 kts | 262° |
| 2026-04-26 00:27 | 33.92730 | -118.58838 | 4884 ft | 411 kts | 262° |
| 2026-04-26 00:27 | 33.92355 | -118.62123 | 4919 ft | 379 kts | 262° |
| 2026-04-26 00:28 | 33.92019 | -118.65119 | 4911 ft | 347 kts | 262° |
| 2026-04-26 00:28 | 33.91706 | -118.67895 | 4866 ft | 323 kts | 263° |
| 2026-04-26 00:28 | 33.91403 | -118.70483 | 4913 ft | 305 kts | 262° |
| 2026-04-26 00:28 | 33.91111 | -118.72941 | 5131 ft | 289 kts | 262° |
| 2026-04-26 00:29 | 33.90837 | -118.75280 | 5715 ft | 274 kts | 262° |
| 2026-04-26 00:29 | 33.90583 | -118.77499 | 6395 ft | 261 kts | 262° |
| 2026-04-26 00:29 | 33.90209 | -118.79624 | 6715 ft | 262 kts | 246° |
| 2026-04-26 00:29 | 33.88975 | -118.81204 | 7044 ft | 265 kts | 210° |
| 2026-04-26 00:30 | 33.87196 | -118.81824 | 7361 ft | 268 kts | 194° |
| 2026-04-26 00:30 | 33.85346 | -118.82225 | 7679 ft | 273 kts | 187° |
| 2026-04-26 00:30 | 33.83476 | -118.81759 | 8074 ft | 283 kts | 153° |
| 2026-04-26 00:30 | 33.82096 | -118.80047 | 8482 ft | 293 kts | 120° |
| 2026-04-26 00:31 | 33.81271 | -118.77827 | 8852 ft | 296 kts | 114° |
| 2026-04-26 00:31 | 33.80514 | -118.75512 | 9292 ft | 298 kts | 113° |
| 2026-04-26 00:31 | 33.79790 | -118.73170 | 9708 ft | 301 kts | 112° |
| 2026-04-26 00:31 | 33.79087 | -118.70784 | 10015 ft | 303 kts | 111° |
| 2026-04-26 00:32 | 33.78393 | -118.68374 | 10286 ft | 306 kts | 111° |
| 2026-04-26 00:32 | 33.77705 | -118.65943 | 10589 ft | 308 kts | 112° |
| 2026-04-26 00:32 | 33.76357 | -118.61058 | 11172 ft | 312 kts | 111° |
| 2026-04-26 00:33 | 33.75678 | -118.58564 | 11413 ft | 317 kts | 111° |
| 2026-04-26 00:33 | 33.74975 | -118.55989 | 11431 ft | 331 kts | 111° |
| 2026-04-26 00:33 | 33.74242 | -118.53307 | 11470 ft | 343 kts | 111° |
| 2026-04-26 00:33 | 33.73485 | -118.50553 | 11523 ft | 354 kts | 111° |
| 2026-04-26 00:34 | 33.72700 | -118.47698 | 11584 ft | 364 kts | 111° |
| 2026-04-26 00:34 | 33.71894 | -118.44777 | 11724 ft | 373 kts | 111° |
| 2026-04-26 00:34 | 33.71071 | -118.41779 | 11824 ft | 382 kts | 111° |
| 2026-04-26 00:34 | 33.70222 | -118.38716 | 11965 ft | 391 kts | 111° |
| 2026-04-26 00:35 | 33.69355 | -118.35582 | 12152 ft | 398 kts | 112° |
| 2026-04-26 00:35 | 33.68507 | -118.32398 | 12450 ft | 401 kts | 111° |
| 2026-04-26 00:35 | 33.67664 | -118.29185 | 12622 ft | 405 kts | 111° |